createdAt,value
2019-05-12T00:02:18.715Z,66.72
2019-05-12T00:04:50.170Z,67.42
2019-05-12T00:07:21.729Z,58.13
2019-05-12T00:09:53.435Z,59.98
2019-05-12T00:12:24.845Z,63.65
2019-05-12T00:14:58.918Z,57.80
2019-05-12T00:17:29.497Z,50.78
2019-05-12T00:20:01.155Z,51.77
2019-05-12T00:22:34.047Z,46.13
2019-05-12T00:25:08.825Z,33.42
2019-05-12T00:27:40.252Z,34.78
2019-05-12T00:30:13.324Z,43.95
2019-05-12T00:32:44.677Z,36.53
2019-05-12T00:35:18.161Z,60.30
2019-05-12T00:37:49.418Z,197.10
2019-05-12T00:40:20.867Z,199.47
2019-05-12T00:42:52.432Z,271.40
2019-05-12T00:45:23.709Z,144.40
2019-05-12T00:47:54.933Z,725.77
2019-05-12T00:50:26.073Z,827.65
2019-05-12T00:52:58.242Z,620.10
2019-05-12T00:55:30.118Z,289.93
2019-05-12T00:58:01.364Z,330.30
2019-05-12T01:00:32.510Z,268.82
2019-05-12T01:03:04.168Z,504.00
2019-05-12T01:05:38.015Z,250.90
2019-05-12T01:08:09.498Z,1176.78
2019-05-12T01:10:41.192Z,1358.08
2019-05-12T01:13:12.640Z,342.18
2019-05-12T01:15:43.996Z,801.48
2019-05-12T01:18:17.975Z,1183.00
2019-05-12T01:20:48.652Z,863.35
2019-05-12T01:23:23.340Z,1040.70
2019-05-12T01:25:53.408Z,1262.93
2019-05-12T01:28:24.951Z,335.93
2019-05-12T01:30:58.346Z,786.17
2019-05-12T01:33:29.501Z,773.85
2019-05-12T01:36:01.060Z,970.77
2019-05-12T01:38:32.515Z,641.58
2019-05-12T01:41:04.278Z,694.77
2019-05-12T01:43:38.096Z,709.85
2019-05-12T01:46:08.724Z,466.25
2019-05-12T01:48:39.875Z,380.92
2019-05-12T01:51:11.555Z,249.85
2019-05-12T01:53:43.090Z,245.50
2019-05-12T01:56:14.648Z,361.87
2019-05-12T01:58:48.422Z,340.90
2019-05-12T02:01:19.715Z,526.52
2019-05-12T02:03:52.416Z,346.55
2019-05-12T02:06:24.257Z,184.72
2019-05-12T02:08:58.173Z,260.98
2019-05-12T02:11:32.495Z,266.17
2019-05-12T02:14:04.258Z,155.65
2019-05-12T02:16:35.703Z,404.02
2019-05-12T02:19:09.046Z,397.23
2019-05-12T02:21:40.968Z,307.37
2019-05-12T02:24:23.344Z,43.58
2019-05-12T02:26:44.891Z,43.00
2019-05-12T02:29:18.315Z,54.20
2019-05-12T02:31:50.291Z,30.27
2019-05-12T02:34:25.102Z,30.32
2019-05-12T02:36:55.457Z,47.08
2019-05-12T02:39:26.802Z,36.48
2019-05-12T02:41:58.428Z,45.67
2019-05-12T02:44:30.078Z,41.55
2019-05-12T02:47:04.907Z,40.78
2019-05-12T02:49:34.987Z,36.77
2019-05-12T02:52:06.603Z,36.90
2019-05-12T02:54:51.930Z,38.80
2019-05-12T02:57:14.292Z,40.38
2019-05-12T02:59:45.668Z,35.17
2019-05-12T03:02:17.535Z,45.38
2019-05-12T03:04:48.684Z,40.73
2019-05-12T03:07:19.831Z,46.18
2019-05-12T03:09:54.836Z,41.45
2019-05-12T03:12:25.688Z,43.45
2019-05-12T03:14:56.960Z,37.93
2019-05-12T03:17:28.425Z,40.45
2019-05-12T03:19:59.769Z,132.00
2019-05-12T03:22:31.134Z,151.40
2019-05-12T03:25:11.820Z,263.35
2019-05-12T03:27:35.404Z,222.48
2019-05-12T03:30:11.713Z,44.77
2019-05-12T03:32:39.992Z,37.42
2019-05-12T03:35:17.000Z,34.25
2019-05-12T03:37:45.300Z,31.27
2019-05-12T03:40:16.827Z,35.25
2019-05-12T03:42:48.184Z,32.20
2019-05-12T03:45:19.638Z,38.15
2019-05-12T03:47:50.992Z,38.98
2019-05-12T03:50:24.342Z,43.42
2019-05-12T03:52:56.624Z,37.63
2019-05-12T03:55:35.880Z,47.88
2019-05-12T03:58:00.911Z,40.10
2019-05-12T04:00:35.931Z,42.75
2019-05-12T04:03:06.332Z,44.40
2019-05-12T04:05:37.639Z,38.98
2019-05-12T04:08:10.000Z,34.45
2019-05-12T04:10:41.561Z,36.95
2019-05-12T04:13:15.109Z,39.53
2019-05-12T04:15:46.201Z,48.25
2019-05-12T04:18:17.401Z,49.05
2019-05-12T04:20:49.224Z,35.70
2019-05-12T04:23:20.675Z,48.87
2019-05-12T04:25:58.388Z,45.58
2019-05-12T04:28:24.808Z,52.25
2019-05-12T04:30:57.089Z,52.53
2019-05-12T04:33:28.542Z,48.78
2019-05-12T04:35:59.901Z,49.35
2019-05-12T04:38:31.149Z,65.83
2019-05-12T04:41:05.721Z,63.65
2019-05-12T04:43:35.793Z,64.03
2019-05-12T04:46:07.558Z,64.40
2019-05-12T04:48:38.802Z,59.35
2019-05-12T04:51:10.563Z,57.62
2019-05-12T04:53:44.891Z,60.30
2019-05-12T04:56:20.131Z,63.35
2019-05-12T04:58:47.895Z,57.65
2019-05-12T05:01:19.453Z,54.83
2019-05-12T05:03:50.604Z,58.08
2019-05-12T05:06:21.748Z,63.60
2019-05-12T05:08:54.430Z,55.40
2019-05-12T05:11:25.881Z,43.13
2019-05-12T05:13:57.566Z,40.90
2019-05-12T05:16:28.903Z,36.95
2019-05-12T05:19:00.147Z,35.23
2019-05-12T05:21:31.601Z,26.52
2019-05-12T05:24:03.888Z,31.23
2019-05-12T05:26:37.469Z,26.30
2019-05-12T05:29:08.110Z,27.75
2019-05-12T05:31:39.772Z,26.30
2019-05-12T05:34:11.430Z,25.77
2019-05-12T05:36:43.447Z,29.30
2019-05-12T05:39:14.745Z,25.70
2019-05-12T05:41:50.900Z,28.83
2019-05-12T05:44:19.206Z,20.27
2019-05-12T05:46:54.544Z,23.12
2019-05-12T05:49:24.972Z,18.07
2019-05-12T05:51:57.600Z,30.45
2019-05-12T05:54:31.372Z,18.17
2019-05-12T05:57:03.051Z,17.90
2019-05-12T05:59:36.856Z,24.65
2019-05-12T06:02:07.677Z,21.87
2019-05-12T06:04:43.840Z,21.35
2019-05-12T06:07:14.239Z,21.37
2019-05-12T06:09:45.106Z,25.37
2019-05-12T06:12:16.459Z,27.48
2019-05-12T06:14:54.327Z,21.77
2019-05-12T06:17:20.906Z,20.25
2019-05-12T06:19:53.872Z,22.07
2019-05-12T06:22:25.050Z,19.30
2019-05-12T06:24:58.878Z,23.47
2019-05-12T06:27:32.701Z,23.75
2019-05-12T06:30:06.201Z,24.12
2019-05-12T06:32:35.881Z,21.05
2019-05-12T06:35:07.341Z,21.02
2019-05-12T06:37:44.208Z,22.35
2019-05-12T06:40:15.365Z,20.30
2019-05-12T06:42:48.417Z,19.82
2019-05-12T06:45:20.531Z,20.25
2019-05-12T06:47:54.110Z,21.93
2019-05-12T06:50:28.592Z,18.02
2019-05-12T06:52:58.072Z,21.65
2019-05-12T06:55:34.380Z,19.02
2019-05-12T06:58:04.775Z,19.70
2019-05-12T07:00:35.712Z,21.52
2019-05-12T07:03:07.472Z,16.25
2019-05-12T07:05:42.507Z,20.30
2019-05-12T07:08:12.022Z,19.50
2019-05-12T07:10:46.852Z,14.65
2019-05-12T07:13:23.223Z,19.25
2019-05-12T07:15:49.654Z,16.35
2019-05-12T07:18:31.619Z,16.48
2019-05-12T07:20:55.431Z,11.93
2019-05-12T07:23:30.229Z,13.00
2019-05-12T07:26:04.772Z,13.62
2019-05-12T07:28:36.217Z,14.23
2019-05-12T07:31:05.658Z,14.05
2019-05-12T07:33:41.539Z,16.77
2019-05-12T07:36:10.776Z,10.72
2019-05-12T07:38:43.388Z,15.65
2019-05-12T07:41:15.469Z,13.78
2019-05-12T07:43:50.526Z,14.53
2019-05-12T07:46:19.810Z,13.75
2019-05-12T07:48:51.163Z,14.35
2019-05-12T07:51:24.143Z,14.13
2019-05-12T07:53:58.966Z,13.55
2019-05-12T07:56:32.585Z,12.90
2019-05-12T07:59:04.193Z,13.38
2019-05-12T08:01:35.878Z,12.00
2019-05-12T08:04:07.255Z,13.95
2019-05-12T08:06:41.693Z,12.60
2019-05-12T08:09:13.559Z,11.80
2019-05-12T08:11:45.001Z,14.03
2019-05-12T08:14:26.811Z,13.25
2019-05-12T08:16:50.067Z,15.53
2019-05-12T08:19:26.560Z,15.10
2019-05-12T08:21:54.713Z,8.63
2019-05-12T08:24:26.310Z,10.48
2019-05-12T08:27:03.124Z,12.18
2019-05-12T08:29:30.620Z,12.10
2019-05-12T08:32:03.806Z,11.95
2019-05-12T08:34:35.158Z,11.12
2019-05-12T08:37:07.736Z,12.05
2019-05-12T08:39:39.197Z,15.00
2019-05-12T08:42:10.853Z,12.18
2019-05-12T08:44:43.926Z,9.48
2019-05-12T08:47:15.364Z,11.88
2019-05-12T08:49:55.060Z,13.93
2019-05-12T08:52:19.439Z,12.58
2019-05-12T08:54:51.460Z,13.30
2019-05-12T08:57:24.808Z,10.78
2019-05-12T09:00:02.750Z,12.82
2019-05-12T09:02:29.144Z,13.30
2019-05-12T09:05:00.800Z,15.68
2019-05-12T09:07:35.977Z,20.95
2019-05-12T09:10:08.018Z,10.63
2019-05-12T09:12:39.519Z,14.25
2019-05-12T09:15:13.410Z,13.70
2019-05-12T09:17:52.539Z,20.17
2019-05-12T09:20:18.024Z,17.92
2019-05-12T09:22:55.030Z,13.20
2019-05-12T09:25:23.885Z,17.57
2019-05-12T09:27:55.244Z,11.90
2019-05-12T09:30:28.923Z,19.12
2019-05-12T09:33:00.595Z,19.17
2019-05-12T09:35:34.784Z,12.68
2019-05-12T09:38:06.142Z,18.82
2019-05-12T09:40:37.518Z,16.42
2019-05-12T09:43:10.699Z,13.22
2019-05-12T09:45:52.099Z,8.18
2019-05-12T09:48:15.397Z,9.48
2019-05-12T09:50:51.555Z,7.87
2019-05-12T09:53:19.830Z,12.70
2019-05-12T09:55:53.759Z,10.13
2019-05-12T09:58:27.686Z,9.08
2019-05-12T10:00:57.327Z,11.20
2019-05-12T10:03:30.876Z,9.73
2019-05-12T10:06:03.667Z,8.08
2019-05-12T10:08:35.544Z,6.20
2019-05-12T10:11:10.250Z,6.33
2019-05-12T10:13:44.897Z,8.40
2019-05-12T10:16:15.979Z,7.85
2019-05-12T10:18:51.300Z,5.97
2019-05-12T10:21:20.111Z,8.03
2019-05-12T10:23:56.407Z,6.47
2019-05-12T10:26:23.936Z,5.12
2019-05-12T10:28:58.375Z,4.67
2019-05-12T10:31:29.524Z,5.55
2019-05-12T10:34:18.992Z,8.23
2019-05-12T10:36:53.505Z,4.12
2019-05-12T10:39:24.583Z,6.97
2019-05-12T10:41:56.741Z,6.10
2019-05-12T10:44:29.911Z,7.42
2019-05-12T10:47:04.401Z,17.07
2019-05-12T10:49:36.005Z,9.20
2019-05-12T10:52:07.663Z,8.15
2019-05-12T10:54:38.924Z,7.45
2019-05-12T10:57:10.063Z,7.03
2019-05-12T10:59:45.226Z,8.40
2019-05-12T11:02:14.027Z,5.33
2019-05-12T11:04:45.449Z,8.18
2019-05-12T11:07:16.910Z,5.42
2019-05-12T11:09:49.998Z,7.83
2019-05-12T11:12:25.292Z,8.23
2019-05-12T11:15:01.070Z,8.33
2019-05-12T11:17:33.463Z,6.47
2019-05-12T11:20:04.276Z,8.58
2019-05-12T11:22:35.467Z,6.25
2019-05-12T11:25:07.122Z,7.95
2019-05-12T11:27:38.474Z,6.15
2019-05-12T11:30:10.256Z,8.20
2019-05-12T11:32:41.693Z,7.92
2019-05-12T11:35:14.331Z,7.35
2019-05-12T11:37:45.521Z,6.20
2019-05-12T11:40:16.704Z,4.70
2019-05-12T11:42:55.671Z,7.28
2019-05-12T11:45:21.215Z,7.95
2019-05-12T11:47:59.172Z,6.58
2019-05-12T11:50:25.676Z,6.87
2019-05-12T11:52:57.002Z,6.05
2019-05-12T11:55:31.539Z,9.70
2019-05-12T11:58:06.796Z,7.45
2019-05-12T12:00:35.657Z,5.03
2019-05-12T12:03:12.544Z,10.32
2019-05-12T12:05:39.787Z,7.28
2019-05-12T12:08:10.836Z,4.33
2019-05-12T12:10:42.171Z,6.22
2019-05-12T12:13:14.113Z,5.92
2019-05-12T12:15:45.298Z,5.53
2019-05-12T12:18:16.340Z,6.08
2019-05-12T12:20:48.209Z,7.55
2019-05-12T12:23:19.636Z,7.40
2019-05-12T12:25:53.268Z,5.03
2019-05-12T12:28:24.287Z,6.25
2019-05-12T12:31:00.370Z,5.45
2019-05-12T12:33:30.979Z,6.22
2019-05-12T12:36:03.939Z,7.25
2019-05-12T12:38:34.634Z,6.60
2019-05-12T12:41:05.979Z,8.18
2019-05-12T12:43:37.364Z,5.53
2019-05-12T12:46:10.750Z,6.12
2019-05-12T12:48:43.982Z,8.43
2019-05-12T12:51:17.445Z,7.90
2019-05-12T12:53:48.066Z,12.63
2019-05-12T12:56:27.678Z,12.58
2019-05-12T12:58:52.101Z,15.70
2019-05-12T13:01:28.446Z,15.05
2019-05-12T13:03:59.436Z,17.87
2019-05-12T13:06:29.641Z,20.20
2019-05-12T13:09:00.997Z,17.05
2019-05-12T13:11:34.931Z,20.00
2019-05-12T13:14:05.441Z,12.13
2019-05-12T13:16:36.684Z,10.45
2019-05-12T13:19:12.330Z,10.40
2019-05-12T13:21:41.125Z,6.87
2019-05-12T13:24:12.177Z,8.13
2019-05-12T13:26:43.695Z,7.92
2019-05-12T13:29:14.987Z,5.83
2019-05-12T13:31:48.300Z,6.53
2019-05-12T13:34:19.153Z,7.03
2019-05-12T13:36:50.586Z,13.08
2019-05-12T13:39:24.248Z,9.35
2019-05-12T13:41:58.543Z,6.45
2019-05-12T13:44:30.437Z,11.33
2019-05-12T13:47:00.710Z,11.43
2019-05-12T13:49:38.419Z,12.43
2019-05-12T13:52:06.057Z,12.03
2019-05-12T13:54:37.745Z,11.65
2019-05-12T13:57:11.792Z,12.45
2019-05-12T13:59:43.550Z,12.73
2019-05-12T14:02:22.077Z,14.05
2019-05-12T14:04:48.864Z,16.70
2019-05-12T14:07:20.389Z,10.75
2019-05-12T14:09:51.872Z,11.93
2019-05-12T14:12:23.328Z,11.53
2019-05-12T14:14:54.798Z,13.15
2019-05-12T14:17:26.134Z,17.12
2019-05-12T14:19:58.002Z,16.52
2019-05-12T14:22:29.455Z,17.45
2019-05-12T14:25:02.243Z,7.60
2019-05-12T14:27:33.492Z,8.55
2019-05-12T14:30:11.474Z,12.47
2019-05-12T14:35:10.117Z,10.43
2019-05-12T14:37:45.769Z,14.98
2019-05-12T14:40:15.163Z,6.60
2019-05-12T14:42:46.228Z,6.00
2019-05-12T14:45:19.465Z,7.10
2019-05-12T14:47:50.256Z,8.03
2019-05-12T14:50:21.502Z,14.70
2019-05-12T14:52:55.914Z,7.83
2019-05-12T14:55:26.032Z,5.58
2019-05-12T14:57:57.299Z,8.65
2019-05-12T15:00:29.176Z,10.78
2019-05-12T15:03:05.478Z,19.75
2019-05-12T15:05:33.811Z,22.82
2019-05-12T15:08:05.377Z,21.70
2019-05-12T15:10:36.820Z,32.98
2019-05-12T15:13:08.171Z,37.85
2019-05-12T15:15:39.320Z,23.27
2019-05-12T15:18:13.181Z,21.55
2019-05-12T15:20:49.975Z,22.15
2019-05-12T15:23:16.863Z,26.85
2019-05-12T15:25:50.911Z,23.15
2019-05-12T15:28:23.462Z,24.45
2019-05-12T15:30:54.328Z,24.32
2019-05-12T15:33:26.468Z,22.05
2019-05-12T15:35:57.820Z,30.10
2019-05-12T15:38:29.274Z,17.27
2019-05-12T15:41:00.626Z,16.37
2019-05-12T15:43:35.790Z,17.87
2019-05-12T15:46:05.176Z,20.23
2019-05-12T15:48:36.627Z,19.75
2019-05-12T15:51:09.108Z,18.62
2019-05-12T15:53:44.600Z,13.90
2019-05-12T15:56:23.104Z,14.28
2019-05-12T15:58:55.830Z,12.23
2019-05-12T16:01:26.364Z,11.65
2019-05-12T16:03:59.232Z,7.47
2019-05-12T16:06:31.601Z,8.85
2019-05-12T16:09:04.843Z,9.48
2019-05-12T16:11:35.889Z,9.13
2019-05-12T16:14:06.832Z,10.28
2019-05-12T16:16:42.432Z,9.53
2019-05-12T16:19:11.060Z,14.83
2019-05-12T16:21:45.304Z,16.90
2019-05-12T16:24:15.777Z,14.07
2019-05-12T16:26:51.721Z,14.65
2019-05-12T16:29:19.860Z,9.20
2019-05-12T16:31:53.782Z,15.25
2019-05-12T16:34:25.040Z,13.13
2019-05-12T16:36:56.277Z,14.38
2019-05-12T16:39:30.502Z,14.98
2019-05-12T16:42:08.336Z,13.40
2019-05-12T16:44:34.858Z,19.25
2019-05-12T16:47:06.183Z,11.78
2019-05-12T16:49:37.641Z,14.23
2019-05-12T16:52:10.147Z,19.50
2019-05-12T16:54:43.885Z,20.72
2019-05-12T16:57:18.120Z,17.57
2019-05-12T16:59:55.556Z,10.85
2019-05-12T17:02:23.358Z,15.72
2019-05-12T17:04:54.028Z,13.78
2019-05-12T17:07:27.144Z,17.17
2019-05-12T17:10:03.047Z,13.08
2019-05-12T17:12:36.479Z,14.40
2019-05-12T17:15:05.088Z,17.95
2019-05-12T17:17:36.232Z,19.62
2019-05-12T17:20:07.927Z,19.92
2019-05-12T17:22:45.786Z,23.00
2019-05-12T17:25:15.299Z,20.50
2019-05-12T17:27:46.906Z,31.85
2019-05-12T17:30:18.375Z,31.07
2019-05-12T17:32:58.084Z,30.50
2019-05-12T17:35:27.084Z,36.20
2019-05-12T17:37:56.067Z,39.73
2019-05-12T17:40:27.864Z,31.45
2019-05-12T17:43:06.853Z,42.38
2019-05-12T17:45:32.172Z,42.15
2019-05-12T17:48:07.422Z,36.00
2019-05-12T17:50:40.385Z,38.35
2019-05-12T17:53:09.402Z,35.60
2019-05-12T17:55:42.725Z,39.85
2019-05-12T17:58:13.856Z,38.10
2019-05-12T18:00:47.692Z,37.15
2019-05-12T18:03:22.161Z,40.78
2019-05-12T18:05:52.971Z,44.10
2019-05-12T18:08:32.325Z,43.63
2019-05-12T18:10:57.082Z,35.70
2019-05-12T18:13:28.606Z,36.58
2019-05-12T18:16:02.912Z,45.80
2019-05-12T18:18:37.957Z,42.85
2019-05-12T18:21:06.109Z,46.83
2019-05-12T18:23:40.263Z,46.70
2019-05-12T18:26:15.918Z,50.35
2019-05-12T18:28:44.608Z,44.45
2019-05-12T18:31:16.181Z,52.08
2019-05-12T18:33:52.089Z,50.80
2019-05-12T18:36:23.665Z,45.70
2019-05-12T18:39:04.443Z,46.73
2019-05-12T18:41:28.521Z,50.35
2019-05-12T18:44:00.088Z,48.20
2019-05-12T18:46:38.668Z,46.30
2019-05-12T18:49:11.983Z,43.10
2019-05-12T18:51:37.705Z,48.13
2019-05-12T18:54:10.427Z,46.35
2019-05-12T18:56:44.037Z,39.75
2019-05-12T18:59:16.591Z,44.27
2019-05-12T19:01:48.329Z,45.38
2019-05-12T19:04:19.721Z,44.40
2019-05-12T19:06:51.157Z,48.63
2019-05-12T19:09:23.895Z,27.30
2019-05-12T19:11:55.392Z,28.60
2019-05-12T19:14:34.936Z,43.40
2019-05-12T19:16:59.811Z,48.40
2019-05-12T19:19:31.469Z,43.05
2019-05-12T19:22:09.073Z,46.13
2019-05-12T19:24:36.475Z,44.30
2019-05-12T19:27:10.216Z,60.23
2019-05-12T19:29:48.190Z,56.02
2019-05-12T19:32:14.372Z,56.48
2019-05-12T19:34:46.278Z,48.92
2019-05-12T19:37:19.421Z,43.50
2019-05-12T19:39:50.995Z,40.38
2019-05-12T19:42:24.415Z,34.58
2019-05-12T19:44:59.662Z,33.42
2019-05-12T19:47:34.500Z,37.10
2019-05-12T19:50:08.860Z,40.52
2019-05-12T19:52:34.305Z,43.50
2019-05-12T19:55:08.527Z,46.40
2019-05-12T19:57:39.985Z,51.18
2019-05-12T20:00:13.649Z,39.58
2019-05-12T20:02:44.190Z,45.80
2019-05-12T20:05:17.641Z,44.70
2019-05-12T20:07:48.163Z,42.05
2019-05-12T20:10:19.719Z,50.50
2019-05-12T20:12:54.912Z,41.30
2019-05-12T20:15:24.255Z,48.40
2019-05-12T20:17:55.410Z,43.90
2019-05-12T20:20:36.645Z,38.75
2019-05-12T20:22:59.753Z,43.48
2019-05-12T20:25:31.107Z,54.80
2019-05-12T20:28:05.578Z,48.13
2019-05-12T20:30:35.551Z,58.02
2019-05-12T20:33:08.176Z,59.08
2019-05-12T20:35:47.324Z,51.58
2019-05-12T20:38:14.763Z,49.18
2019-05-12T20:40:45.457Z,43.98
2019-05-12T20:43:18.063Z,48.17
2019-05-12T20:45:49.700Z,50.45
2019-05-12T20:48:26.388Z,39.90
2019-05-12T20:50:54.761Z,45.10
2019-05-12T20:53:31.781Z,43.13
2019-05-12T20:56:00.209Z,37.80
2019-05-12T20:58:39.536Z,42.10
2019-05-12T21:01:08.463Z,45.25
2019-05-12T21:03:46.342Z,33.80
2019-05-12T21:06:14.564Z,32.25
2019-05-12T21:08:53.619Z,37.40
2019-05-12T21:11:19.796Z,51.42
2019-05-12T21:13:51.453Z,41.37
2019-05-12T21:16:31.244Z,46.63
2019-05-12T21:19:05.625Z,41.20
2019-05-12T21:21:34.247Z,42.45
2019-05-12T21:24:04.840Z,38.33
2019-05-12T21:26:37.872Z,31.68
2019-05-12T21:29:07.874Z,32.53
2019-05-12T21:31:39.519Z,25.90
2019-05-12T21:34:15.061Z,29.05
2019-05-12T21:36:44.595Z,33.73
2019-05-12T21:39:16.469Z,33.83
2019-05-12T21:41:52.101Z,29.45
2019-05-12T21:44:21.090Z,34.88
2019-05-12T21:47:03.776Z,30.35
2019-05-12T21:49:25.539Z,31.05
2019-05-12T21:52:02.974Z,32.20
2019-05-12T21:54:37.746Z,28.77
2019-05-12T21:57:03.796Z,31.00
2019-05-12T21:59:39.421Z,31.25
2019-05-12T22:02:08.138Z,29.32
2019-05-12T22:04:41.504Z,28.20
2019-05-12T22:07:14.584Z,28.65
2019-05-12T22:09:47.178Z,26.65
2019-05-12T22:12:23.505Z,26.02
2019-05-12T22:14:54.314Z,29.40
2019-05-12T22:17:27.722Z,24.37
2019-05-12T22:19:59.320Z,29.48
2019-05-12T22:22:33.214Z,25.75
2019-05-12T22:25:09.801Z,27.25
2019-05-12T22:27:39.547Z,27.32
2019-05-12T22:30:13.349Z,37.03
2019-05-12T22:32:44.228Z,26.20
2019-05-12T22:35:21.940Z,27.07
2019-05-12T22:37:49.072Z,29.30
2019-05-12T22:40:20.526Z,31.42
2019-05-12T22:42:57.033Z,30.37
2019-05-12T22:45:25.381Z,33.50
2019-05-12T22:47:59.080Z,37.53
2019-05-12T22:50:33.215Z,33.00
2019-05-12T22:53:04.436Z,31.82
2019-05-12T22:55:36.367Z,35.83
2019-05-12T22:58:10.842Z,31.37
2019-05-12T23:00:40.670Z,35.73
2019-05-12T23:03:14.974Z,29.60
2019-05-12T23:05:50.609Z,33.73
2019-05-12T23:08:19.743Z,31.35
2019-05-12T23:10:53.267Z,30.57
2019-05-12T23:13:24.008Z,37.00
2019-05-12T23:15:55.743Z,31.48
2019-05-12T23:18:30.700Z,35.35
2019-05-12T23:21:04.139Z,30.15
2019-05-12T23:23:34.083Z,28.15
2019-05-12T23:26:05.662Z,28.02
2019-05-12T23:28:40.499Z,26.07
2019-05-12T23:31:10.311Z,28.62
2019-05-12T23:33:44.129Z,21.45
2019-05-12T23:36:19.570Z,21.37
2019-05-12T23:38:51.996Z,22.02
2019-05-12T23:41:23.794Z,23.07
2019-05-12T23:43:56.701Z,23.90
2019-05-12T23:46:27.848Z,24.60
2019-05-12T23:48:59.506Z,24.85
2019-05-12T23:51:31.062Z,24.12
2019-05-12T23:54:03.782Z,27.40
2019-05-12T23:56:35.309Z,26.52
2019-05-12T23:59:06.659Z,27.77
